FKYS/NSI METAR and TAF weather

Enter ICAO airport designator
Station Type Date Time Source
FKYS METAR 2019/06/26 22:00 UTC NOAA

FKYS 262200Z 25006KT 220V280 8000 SCT006 21/20 Q1020 TEMPO BKN006


Station Type Date Time Source
FKYS Decoded METAR 2019/06/26 22:00 UTC NOAA

Yaounde, Cameroon (FKYS) 03-50N 011-31E 760M
Jun 26, 2019 - 06:00 PM EDT / 2019.06.26 2200 UTC
Wind: from the WSW (250 degrees) at 7 MPH (6 KT) (direction variable):0
Visibility: 4 mile(s):0
Sky conditions: partly cloudy
Temperature: 69 F (21 C)
Dew Point: 68 F (20 C)
Relative Humidity: 94%
Pressure (altimeter): 30.12 in. Hg (1020 hPa)
ob: FKYS 262200Z 25006KT 220V280 8000 SCT006 21/20 Q1020 TEMPO BKN006
cycle: 22

Station Type Date Time Source
FKYS TAF 2019/06/26 18:48 UTC NOAA

TAF TAF FKYS 261700Z 2618/2718 25006KT 9999 BKN013
BECMG 2620/2622 BKN006 PROB30 2704/2707 4000 DZ
BECMG 2706/2710 BKN016

Example: see airport list